sensor_id;sensor_type;location;lat;lon;timestamp;pressure;altitude;pressure_sealevel;temperature;humidity
6565;BME280;3316;44.118;27.258;2023-09-30T00:02:05;101393.94;;;18.81;100.00
6565;BME280;3316;44.118;27.258;2023-09-30T00:04:30;101383.44;;;18.76;100.00
6565;BME280;3316;44.118;27.258;2023-09-30T00:06:55;101376.22;;;18.80;100.00
6565;BME280;3316;44.118;27.258;2023-09-30T00:09:21;101387.84;;;18.77;100.00
6565;BME280;3316;44.118;27.258;2023-09-30T00:11:47;101384.34;;;18.75;100.00
6565;BME280;3316;44.118;27.258;2023-09-30T00:14:12;101380.78;;;18.76;100.00
6565;BME280;3316;44.118;27.258;2023-09-30T00:16:38;101365.06;;;18.67;100.00
6565;BME280;3316;44.118;27.258;2023-09-30T00:19:03;101342.50;;;18.49;100.00
6565;BME280;3316;44.118;27.258;2023-09-30T00:21:29;101373.34;;;18.58;100.00
6565;BME280;3316;44.118;27.258;2023-09-30T00:23:55;101374.31;;;18.55;100.00
6565;BME280;3316;44.118;27.258;2023-09-30T00:26:20;101379.56;;;18.58;100.00
6565;BME280;3316;44.118;27.258;2023-09-30T00:28:47;101380.28;;;18.63;100.00
6565;BME280;3316;44.118;27.258;2023-09-30T00:31:12;101372.53;;;18.56;100.00
6565;BME280;3316;44.118;27.258;2023-09-30T00:33:38;101371.16;;;18.41;100.00
6565;BME280;3316;44.118;27.258;2023-09-30T00:36:08;101362.31;;;18.41;100.00
6565;BME280;3316;44.118;27.258;2023-09-30T00:38:34;101361.63;;;18.34;100.00
6565;BME280;3316;44.118;27.258;2023-09-30T00:41:00;101372.97;;;18.41;100.00
6565;BME280;3316;44.118;27.258;2023-09-30T00:43:25;101358.69;;;18.43;100.00
6565;BME280;3316;44.118;27.258;2023-09-30T00:46:17;101363.78;;;18.51;100.00
6565;BME280;3316;44.118;27.258;2023-09-30T00:48:46;101373.66;;;18.47;100.00
6565;BME280;3316;44.118;27.258;2023-09-30T00:51:12;101371.84;;;18.49;100.00
6565;BME280;3316;44.118;27.258;2023-09-30T00:53:38;101306.97;;;18.21;99.69
6565;BME280;3316;44.118;27.258;2023-09-30T00:56:04;101368.34;;;18.47;100.00
6565;BME280;3316;44.118;27.258;2023-09-30T00:58:30;101363.88;;;18.48;100.00
6565;BME280;3316;44.118;27.258;2023-09-30T01:00:57;101361.16;;;18.49;100.00
6565;BME280;3316;44.118;27.258;2023-09-30T01:03:24;101367.25;;;18.54;100.00
6565;BME280;3316;44.118;27.258;2023-09-30T01:05:50;101360.06;;;18.56;100.00
6565;BME280;3316;44.118;27.258;2023-09-30T01:08:16;101347.66;;;18.55;100.00
6565;BME280;3316;44.118;27.258;2023-09-30T01:10:43;101368.59;;;18.67;100.00
6565;BME280;3316;44.118;27.258;2023-09-30T01:13:10;101334.72;;;18.43;100.00
6565;BME280;3316;44.118;27.258;2023-09-30T01:15:36;101364.47;;;18.57;100.00
6565;BME280;3316;44.118;27.258;2023-09-30T01:18:03;101359.38;;;18.50;100.00
6565;BME280;3316;44.118;27.258;2023-09-30T01:20:28;101362.81;;;18.53;100.00
6565;BME280;3316;44.118;27.258;2023-09-30T01:22:54;101363.13;;;18.44;100.00
6565;BME280;3316;44.118;27.258;2023-09-30T01:25:21;101356.16;;;18.39;100.00
6565;BME280;3316;44.118;27.258;2023-09-30T01:27:46;101352.69;;;18.35;100.00
6565;BME280;3316;44.118;27.258;2023-09-30T01:30:13;101319.72;;;18.10;99.94
6565;BME280;3316;44.118;27.258;2023-09-30T01:32:39;101353.88;;;18.27;98.17
6565;BME280;3316;44.118;27.258;2023-09-30T01:35:05;101353.16;;;18.20;97.67
6565;BME280;3316;44.118;27.258;2023-09-30T01:37:31;101356.59;;;18.24;97.90
6565;BME280;3316;44.118;27.258;2023-09-30T01:39:56;101347.84;;;18.20;99.88
6565;BME280;3316;44.118;27.258;2023-09-30T01:42:22;101346.81;;;18.24;100.00
6565;BME280;3316;44.118;27.258;2023-09-30T01:44:47;101339.78;;;18.22;100.00
6565;BME280;3316;44.118;27.258;2023-09-30T01:47:13;101345.63;;;18.34;100.00
6565;BME280;3316;44.118;27.258;2023-09-30T01:49:38;101332.63;;;18.24;100.00
6565;BME280;3316;44.118;27.258;2023-09-30T01:52:04;101341.63;;;18.20;100.00
6565;BME280;3316;44.118;27.258;2023-09-30T01:54:29;101323.50;;;18.03;100.00
6565;BME280;3316;44.118;27.258;2023-09-30T01:56:56;101351.50;;;18.18;100.00
6565;BME280;3316;44.118;27.258;2023-09-30T01:59:21;101349.91;;;18.11;100.00
6565;BME280;3316;44.118;27.258;2023-09-30T02:01:48;101348.19;;;18.10;100.00
6565;BME280;3316;44.118;27.258;2023-09-30T02:04:14;101350.13;;;18.03;100.00
6565;BME280;3316;44.118;27.258;2023-09-30T02:06:43;101350.41;;;17.94;100.00
6565;BME280;3316;44.118;27.258;2023-09-30T02:09:09;101347.81;;;17.91;100.00
6565;BME280;3316;44.118;27.258;2023-09-30T02:11:35;101349.94;;;17.80;100.00
6565;BME280;3316;44.118;27.258;2023-09-30T02:14:04;101341.19;;;17.75;100.00
6565;BME280;3316;44.118;27.258;2023-09-30T02:16:31;101351.66;;;17.81;100.00
6565;BME280;3316;44.118;27.258;2023-09-30T02:18:56;101345.50;;;17.79;100.00
6565;BME280;3316;44.118;27.258;2023-09-30T02:21:22;101344.13;;;17.66;100.00
6565;BME280;3316;44.118;27.258;2023-09-30T02:23:47;101348.66;;;17.62;100.00
6565;BME280;3316;44.118;27.258;2023-09-30T02:26:16;101333.75;;;17.57;100.00
6565;BME280;3316;44.118;27.258;2023-09-30T02:28:42;101344.94;;;17.68;100.00
6565;BME280;3316;44.118;27.258;2023-09-30T02:31:08;101322.16;;;17.58;100.00
6565;BME280;3316;44.118;27.258;2023-09-30T02:33:34;101338.84;;;17.64;100.00
6565;BME280;3316;44.118;27.258;2023-09-30T02:36:03;101331.38;;;17.45;100.00
6565;BME280;3316;44.118;27.258;2023-09-30T02:38:31;101333.03;;;17.50;100.00
6565;BME280;3316;44.118;27.258;2023-09-30T02:40:57;101344.50;;;17.52;100.00
6565;BME280;3316;44.118;27.258;2023-09-30T02:43:22;101344.38;;;17.57;100.00
6565;BME280;3316;44.118;27.258;2023-09-30T02:45:47;101345.16;;;17.60;100.00
6565;BME280;3316;44.118;27.258;2023-09-30T02:48:13;101348.56;;;17.65;100.00
6565;BME280;3316;44.118;27.258;2023-09-30T02:50:42;101349.63;;;17.60;100.00
6565;BME280;3316;44.118;27.258;2023-09-30T02:53:10;101344.22;;;17.63;100.00
6565;BME280;3316;44.118;27.258;2023-09-30T02:55:35;101346.94;;;17.60;100.00
6565;BME280;3316;44.118;27.258;2023-09-30T02:58:01;101352.38;;;17.57;100.00
6565;BME280;3316;44.118;27.258;2023-09-30T03:00:27;101341.78;;;17.54;100.00
6565;BME280;3316;44.118;27.258;2023-09-30T03:02:53;101272.84;;;17.13;100.00
6565;BME280;3316;44.118;27.258;2023-09-30T03:05:19;101345.56;;;17.45;100.00
6565;BME280;3316;44.118;27.258;2023-09-30T03:07:45;101347.28;;;17.49;100.00
6565;BME280;3316;44.118;27.258;2023-09-30T03:10:11;101336.78;;;17.42;100.00
6565;BME280;3316;44.118;27.258;2023-09-30T03:12:39;101333.09;;;17.47;100.00
6565;BME280;3316;44.118;27.258;2023-09-30T03:15:05;101343.75;;;17.47;100.00
6565;BME280;3316;44.118;27.258;2023-09-30T03:17:31;101339.13;;;17.54;100.00
6565;BME280;3316;44.118;27.258;2023-09-30T03:19:58;101346.28;;;17.52;100.00
6565;BME280;3316;44.118;27.258;2023-09-30T03:22:25;101344.59;;;17.48;100.00
6565;BME280;3316;44.118;27.258;2023-09-30T03:24:51;101333.25;;;17.41;100.00
6565;BME280;3316;44.118;27.258;2023-09-30T03:27:16;101331.72;;;17.33;100.00
6565;BME280;3316;44.118;27.258;2023-09-30T03:29:42;101341.25;;;17.41;100.00
6565;BME280;3316;44.118;27.258;2023-09-30T03:32:07;101350.88;;;17.45;100.00
6565;BME280;3316;44.118;27.258;2023-09-30T03:34:34;101358.88;;;17.44;100.00
6565;BME280;3316;44.118;27.258;2023-09-30T03:37:01;101334.72;;;17.19;100.00
6565;BME280;3316;44.118;27.258;2023-09-30T03:39:27;101352.00;;;17.37;100.00
6565;BME280;3316;44.118;27.258;2023-09-30T03:41:56;101363.72;;;17.30;100.00
6565;BME280;3316;44.118;27.258;2023-09-30T03:44:23;101352.38;;;17.23;100.00
6565;BME280;3316;44.118;27.258;2023-09-30T03:46:50;101356.75;;;17.24;100.00
6565;BME280;3316;44.118;27.258;2023-09-30T03:49:15;101352.25;;;17.26;100.00
6565;BME280;3316;44.118;27.258;2023-09-30T03:51:41;101355.97;;;17.21;100.00
6565;BME280;3316;44.118;27.258;2023-09-30T03:54:07;101357.94;;;17.14;100.00
6565;BME280;3316;44.118;27.258;2023-09-30T03:56:34;101358.94;;;17.09;100.00
6565;BME280;3316;44.118;27.258;2023-09-30T03:58:59;101356.56;;;16.98;100.00
6565;BME280;3316;44.118;27.258;2023-09-30T04:01:25;101350.56;;;16.90;100.00
6565;BME280;3316;44.118;27.258;2023-09-30T04:03:52;101361.94;;;16.95;100.00
6565;BME280;3316;44.118;27.258;2023-09-30T04:06:20;101359.38;;;16.92;100.00
6565;BME280;3316;44.118;27.258;2023-09-30T04:08:46;101351.59;;;16.84;100.00
6565;BME280;3316;44.118;27.258;2023-09-30T04:11:12;101376.91;;;16.99;100.00
6565;BME280;3316;44.118;27.258;2023-09-30T04:13:43;101367.00;;;17.06;100.00
6565;BME280;3316;44.118;27.258;2023-09-30T04:16:10;101366.00;;;17.10;100.00
6565;BME280;3316;44.118;27.258;2023-09-30T04:18:35;101373.72;;;17.20;100.00
6565;BME280;3316;44.118;27.258;2023-09-30T04:21:01;101382.69;;;17.16;100.00
6565;BME280;3316;44.118;27.258;2023-09-30T04:23:27;101360.69;;;17.10;100.00
6565;BME280;3316;44.118;27.258;2023-09-30T04:25:52;101378.16;;;17.20;100.00
6565;BME280;3316;44.118;27.258;2023-09-30T04:28:18;101381.53;;;17.26;100.00
6565;BME280;3316;44.118;27.258;2023-09-30T04:30:47;101369.78;;;17.35;100.00
6565;BME280;3316;44.118;27.258;2023-09-30T04:33:13;101371.28;;;17.45;100.00
6565;BME280;3316;44.118;27.258;2023-09-30T04:35:39;101382.53;;;17.88;100.00
6565;BME280;3316;44.118;27.258;2023-09-30T04:38:04;101382.69;;;18.43;100.00
6565;BME280;3316;44.118;27.258;2023-09-30T04:40:30;101380.69;;;19.05;100.00
6565;BME280;3316;44.118;27.258;2023-09-30T04:42:55;101383.50;;;19.53;96.59
6565;BME280;3316;44.118;27.258;2023-09-30T04:45:24;101384.00;;;20.12;92.75
6565;BME280;3316;44.118;27.258;2023-09-30T04:47:52;101392.03;;;20.80;87.12
6565;BME280;3316;44.118;27.258;2023-09-30T04:50:17;101363.41;;;21.25;82.23
6565;BME280;3316;44.118;27.258;2023-09-30T04:52:44;101402.19;;;21.97;78.50
6565;BME280;3316;44.118;27.258;2023-09-30T04:55:10;101394.00;;;22.39;75.10
6565;BME280;3316;44.118;27.258;2023-09-30T04:57:37;101402.38;;;23.06;68.86
6565;BME280;3316;44.118;27.258;2023-09-30T05:00:03;101379.22;;;23.39;66.68
6565;BME280;3316;44.118;27.258;2023-09-30T05:02:38;101402.66;;;24.04;63.25
6565;BME280;3316;44.118;27.258;2023-09-30T05:05:04;101405.75;;;24.61;59.58
6565;BME280;3316;44.118;27.258;2023-09-30T05:07:31;101402.88;;;24.96;57.17
6565;BME280;3316;44.118;27.258;2023-09-30T05:09:57;101401.78;;;25.29;54.37
6565;BME280;3316;44.118;27.258;2023-09-30T05:12:23;101408.00;;;25.75;51.78
6565;BME280;3316;44.118;27.258;2023-09-30T05:14:48;101408.25;;;25.86;50.40
6565;BME280;3316;44.118;27.258;2023-09-30T05:17:14;101406.47;;;25.85;50.55
6565;BME280;3316;44.118;27.258;2023-09-30T05:19:39;101405.00;;;26.37;48.37
6565;BME280;3316;44.118;27.258;2023-09-30T05:22:04;101417.53;;;25.81;49.65
6565;BME280;3316;44.118;27.258;2023-09-30T05:24:30;101413.38;;;26.47;49.13
6565;BME280;3316;44.118;27.258;2023-09-30T05:26:56;101420.16;;;27.21;45.82
6565;BME280;3316;44.118;27.258;2023-09-30T05:29:21;101416.56;;;27.08;45.47
6565;BME280;3316;44.118;27.258;2023-09-30T05:31:47;101424.47;;;25.85;47.96
6565;BME280;3316;44.118;27.258;2023-09-30T05:34:12;101420.22;;;25.21;50.37
6565;BME280;3316;44.118;27.258;2023-09-30T05:36:38;101420.00;;;25.55;50.30
6565;BME280;3316;44.118;27.258;2023-09-30T05:39:04;101424.31;;;26.86;47.28
6565;BME280;3316;44.118;27.258;2023-09-30T05:41:31;101420.19;;;28.12;43.65
6565;BME280;3316;44.118;27.258;2023-09-30T05:43:57;101417.78;;;28.94;41.65
6565;BME280;3316;44.118;27.258;2023-09-30T05:46:24;101428.41;;;29.68;39.53
6565;BME280;3316;44.118;27.258;2023-09-30T05:48:49;101437.06;;;30.74;37.63
6565;BME280;3316;44.118;27.258;2023-09-30T05:51:15;101437.44;;;31.03;35.08
6565;BME280;3316;44.118;27.258;2023-09-30T05:53:41;101433.88;;;31.66;35.07
6565;BME280;3316;44.118;27.258;2023-09-30T05:56:07;101439.69;;;32.65;33.37
6565;BME280;3316;44.118;27.258;2023-09-30T05:58:33;101439.00;;;32.82;32.67
6565;BME280;3316;44.118;27.258;2023-09-30T06:00:58;101432.91;;;33.08;32.67
6565;BME280;3316;44.118;27.258;2023-09-30T06:03:26;101430.41;;;33.64;30.73
6565;BME280;3316;44.118;27.258;2023-09-30T06:05:54;101438.88;;;33.99;30.03
6565;BME280;3316;44.118;27.258;2023-09-30T06:08:21;101442.00;;;34.60;29.81
6565;BME280;3316;44.118;27.258;2023-09-30T06:10:46;101421.47;;;34.56;29.40
6565;BME280;3316;44.118;27.258;2023-09-30T06:13:13;101444.44;;;34.63;29.73
6565;BME280;3316;44.118;27.258;2023-09-30T06:15:41;101438.34;;;35.24;28.50
6565;BME280;3316;44.118;27.258;2023-09-30T06:18:08;101454.09;;;35.57;28.47
6565;BME280;3316;44.118;27.258;2023-09-30T06:20:35;101453.06;;;35.75;28.07
6565;BME280;3316;44.118;27.258;2023-09-30T06:23:01;101446.94;;;35.56;28.67
6565;BME280;3316;44.118;27.258;2023-09-30T06:25:26;101442.38;;;35.64;28.93
6565;BME280;3316;44.118;27.258;2023-09-30T06:27:53;101430.75;;;35.88;27.90
6565;BME280;3316;44.118;27.258;2023-09-30T06:30:22;101443.84;;;35.94;27.33
6565;BME280;3316;44.118;27.258;2023-09-30T06:32:58;101447.00;;;36.33;27.55
6565;BME280;3316;44.118;27.258;2023-09-30T06:35:30;101456.34;;;37.07;26.88
6565;BME280;3316;44.118;27.258;2023-09-30T06:37:58;101458.09;;;37.24;26.34
6565;BME280;3316;44.118;27.258;2023-09-30T06:40:24;101448.69;;;36.85;26.44
6565;BME280;3316;44.118;27.258;2023-09-30T06:42:50;101447.53;;;36.36;26.07
6565;BME280;3316;44.118;27.258;2023-09-30T06:45:15;101443.22;;;36.85;26.34
6565;BME280;3316;44.118;27.258;2023-09-30T06:47:41;101441.06;;;37.13;26.02
6565;BME280;3316;44.118;27.258;2023-09-30T06:50:10;101438.69;;;37.26;25.87
6565;BME280;3316;44.118;27.258;2023-09-30T06:52:39;101449.28;;;37.79;25.62
6565;BME280;3316;44.118;27.258;2023-09-30T06:55:07;101447.22;;;37.81;24.91
6565;BME280;3316;44.118;27.258;2023-09-30T06:57:34;101447.88;;;38.07;24.31
6565;BME280;3316;44.118;27.258;2023-09-30T06:59:59;101440.44;;;38.40;24.26
6565;BME280;3316;44.118;27.258;2023-09-30T07:02:25;101454.03;;;38.41;24.03
6565;BME280;3316;44.118;27.258;2023-09-30T07:04:52;101430.16;;;38.17;24.81
6565;BME280;3316;44.118;27.258;2023-09-30T07:07:17;101416.59;;;38.16;24.19
6565;BME280;3316;44.118;27.258;2023-09-30T07:09:44;101439.19;;;38.66;24.62
6565;BME280;3316;44.118;27.258;2023-09-30T07:12:09;101447.44;;;39.05;24.08
6565;BME280;3316;44.118;27.258;2023-09-30T07:14:35;101437.44;;;39.65;23.51
6565;BME280;3316;44.118;27.258;2023-09-30T07:17:00;101444.16;;;39.01;23.55
6565;BME280;3316;44.118;27.258;2023-09-30T07:19:26;101430.78;;;39.29;23.36
6565;BME280;3316;44.118;27.258;2023-09-30T07:21:51;101447.59;;;39.42;23.62
6565;BME280;3316;44.118;27.258;2023-09-30T07:24:16;101443.50;;;39.61;22.74
6565;BME280;3316;44.118;27.258;2023-09-30T07:26:42;101440.72;;;40.21;22.45
6565;BME280;3316;44.118;27.258;2023-09-30T07:29:09;101449.22;;;40.48;22.76
6565;BME280;3316;44.118;27.258;2023-09-30T07:31:35;101449.34;;;40.55;22.82
6565;BME280;3316;44.118;27.258;2023-09-30T07:34:02;101402.84;;;40.73;23.05
6565;BME280;3316;44.118;27.258;2023-09-30T07:36:27;101444.56;;;40.78;22.42
6565;BME280;3316;44.118;27.258;2023-09-30T07:38:53;101422.09;;;40.52;22.24
6565;BME280;3316;44.118;27.258;2023-09-30T07:41:19;101439.53;;;40.81;22.69
6565;BME280;3316;44.118;27.258;2023-09-30T07:43:44;101448.47;;;40.83;22.54
6565;BME280;3316;44.118;27.258;2023-09-30T07:46:10;101453.69;;;41.08;22.88
6565;BME280;3316;44.118;27.258;2023-09-30T07:48:35;101445.94;;;41.18;22.85
6565;BME280;3316;44.118;27.258;2023-09-30T07:51:01;101451.75;;;41.23;22.37
6565;BME280;3316;44.118;27.258;2023-09-30T07:53:27;101434.13;;;41.09;22.62
6565;BME280;3316;44.118;27.258;2023-09-30T07:55:53;101441.16;;;41.47;22.28
6565;BME280;3316;44.118;27.258;2023-09-30T07:58:20;101442.47;;;41.66;21.63
6565;BME280;3316;44.118;27.258;2023-09-30T08:00:45;101442.03;;;41.12;21.89
6565;BME280;3316;44.118;27.258;2023-09-30T08:03:11;101447.44;;;41.35;21.48
6565;BME280;3316;44.118;27.258;2023-09-30T08:05:37;101443.38;;;41.73;21.48
6565;BME280;3316;44.118;27.258;2023-09-30T08:08:03;101449.41;;;42.32;21.08
6565;BME280;3316;44.118;27.258;2023-09-30T08:10:29;101450.00;;;42.27;21.03
6565;BME280;3316;44.118;27.258;2023-09-30T08:12:57;101433.09;;;42.43;20.21
6565;BME280;3316;44.118;27.258;2023-09-30T08:15:24;101450.19;;;42.88;19.42
6565;BME280;3316;44.118;27.258;2023-09-30T08:17:49;101448.56;;;42.66;19.68
6565;BME280;3316;44.118;27.258;2023-09-30T08:20:15;101455.16;;;42.65;19.04
6565;BME280;3316;44.118;27.258;2023-09-30T08:22:40;101449.03;;;42.14;20.01
6565;BME280;3316;44.118;27.258;2023-09-30T08:25:06;101449.47;;;41.68;20.28
6565;BME280;3316;44.118;27.258;2023-09-30T08:27:32;101446.19;;;40.87;20.84
6565;BME280;3316;44.118;27.258;2023-09-30T08:29:58;101418.75;;;40.27;20.56
6565;BME280;3316;44.118;27.258;2023-09-30T08:32:23;101431.78;;;40.04;20.65
6565;BME280;3316;44.118;27.258;2023-09-30T08:34:48;101432.38;;;39.24;21.33
6565;BME280;3316;44.118;27.258;2023-09-30T08:37:14;101425.59;;;38.57;22.16
6565;BME280;3316;44.118;27.258;2023-09-30T08:39:40;101431.91;;;38.10;22.19
6565;BME280;3316;44.118;27.258;2023-09-30T08:42:10;101431.13;;;37.12;22.80
6565;BME280;3316;44.118;27.258;2023-09-30T08:44:39;101422.09;;;36.44;23.42
6565;BME280;3316;44.118;27.258;2023-09-30T08:47:06;101418.31;;;35.94;24.09
6565;BME280;3316;44.118;27.258;2023-09-30T08:49:38;101417.03;;;35.62;24.47
6565;BME280;3316;44.118;27.258;2023-09-30T08:52:05;101401.44;;;35.10;24.48
6565;BME280;3316;44.118;27.258;2023-09-30T08:54:31;101399.31;;;34.50;24.94
6565;BME280;3316;44.118;27.258;2023-09-30T08:56:57;101401.66;;;33.79;25.76
6565;BME280;3316;44.118;27.258;2023-09-30T08:59:25;101386.38;;;33.86;26.61
6565;BME280;3316;44.118;27.258;2023-09-30T09:01:52;101407.66;;;34.12;25.20
6565;BME280;3316;44.118;27.258;2023-09-30T09:04:17;101395.59;;;33.85;24.38
6565;BME280;3316;44.118;27.258;2023-09-30T09:06:43;101405.97;;;33.34;25.11
6565;BME280;3316;44.118;27.258;2023-09-30T09:09:18;101392.03;;;32.59;25.56
6565;BME280;3316;44.118;27.258;2023-09-30T09:11:45;101403.50;;;32.02;26.89
6565;BME280;3316;44.118;27.258;2023-09-30T09:14:11;101395.84;;;31.55;27.15
6565;BME280;3316;44.118;27.258;2023-09-30T09:16:37;101384.22;;;31.53;27.50
6565;BME280;3316;44.118;27.258;2023-09-30T09:19:21;101382.97;;;31.25;26.86
6565;BME280;3316;44.118;27.258;2023-09-30T09:21:57;101374.25;;;31.11;27.35
6565;BME280;3316;44.118;27.258;2023-09-30T09:24:37;101381.16;;;31.15;26.97
6565;BME280;3316;44.118;27.258;2023-09-30T09:27:08;101380.31;;;31.46;27.40
6565;BME280;3316;44.118;27.258;2023-09-30T09:29:37;101370.94;;;31.80;27.57
6565;BME280;3316;44.118;27.258;2023-09-30T09:32:21;101342.03;;;32.09;26.96
6565;BME280;3316;44.118;27.258;2023-09-30T09:35:00;101365.38;;;32.32;26.48
6565;BME280;3316;44.118;27.258;2023-09-30T09:37:26;101362.63;;;31.40;26.61
6565;BME280;3316;44.118;27.258;2023-09-30T09:39:56;101365.09;;;31.64;27.17
6565;BME280;3316;44.118;27.258;2023-09-30T09:45:03;101351.63;;;31.83;27.24
6565;BME280;3316;44.118;27.258;2023-09-30T09:47:31;101352.53;;;32.14;26.85
6565;BME280;3316;44.118;27.258;2023-09-30T09:49:58;101331.22;;;32.28;26.05
6565;BME280;3316;44.118;27.258;2023-09-30T09:52:24;101363.22;;;32.76;26.41
6565;BME280;3316;44.118;27.258;2023-09-30T09:54:50;101360.91;;;32.62;25.64
6565;BME280;3316;44.118;27.258;2023-09-30T09:57:17;101359.63;;;32.75;26.03
6565;BME280;3316;44.118;27.258;2023-09-30T09:59:44;101361.56;;;32.45;26.30
6565;BME280;3316;44.118;27.258;2023-09-30T10:02:13;101354.97;;;32.17;26.27
6565;BME280;3316;44.118;27.258;2023-09-30T10:04:49;101352.75;;;31.81;26.94
6565;BME280;3316;44.118;27.258;2023-09-30T10:07:46;101339.28;;;32.00;26.69
6565;BME280;3316;44.118;27.258;2023-09-30T10:10:19;101353.44;;;31.73;27.03
6565;BME280;3316;44.118;27.258;2023-09-30T10:12:46;101336.28;;;31.82;27.08
6565;BME280;3316;44.118;27.258;2023-09-30T10:18:02;101343.63;;;31.61;26.51
6565;BME280;3316;44.118;27.258;2023-09-30T10:20:36;101342.34;;;31.65;26.66
6565;BME280;3316;44.118;27.258;2023-09-30T10:23:25;101341.53;;;31.74;26.41
6565;BME280;3316;44.118;27.258;2023-09-30T10:26:13;101328.63;;;31.14;26.65
6565;BME280;3316;44.118;27.258;2023-09-30T10:28:41;101315.13;;;31.24;26.56
6565;BME280;3316;44.118;27.258;2023-09-30T10:36:33;101324.53;;;31.82;26.41
6565;BME280;3316;44.118;27.258;2023-09-30T10:38:59;101316.84;;;31.87;26.61
6565;BME280;3316;44.118;27.258;2023-09-30T10:46:48;101318.94;;;31.01;27.45
6565;BME280;3316;44.118;27.258;2023-09-30T10:49:16;101320.38;;;31.57;26.84
6565;BME280;3316;44.118;27.258;2023-09-30T10:51:43;101320.97;;;31.61;26.74
6565;BME280;3316;44.118;27.258;2023-09-30T10:54:09;101317.84;;;31.24;26.88
6565;BME280;3316;44.118;27.258;2023-09-30T10:56:37;101311.34;;;30.84;27.12
6565;BME280;3316;44.118;27.258;2023-09-30T10:59:03;101302.78;;;30.88;27.11
6565;BME280;3316;44.118;27.258;2023-09-30T11:01:37;101277.34;;;30.78;26.98
6565;BME280;3316;44.118;27.258;2023-09-30T11:04:03;101287.44;;;30.98;27.50
6565;BME280;3316;44.118;27.258;2023-09-30T11:06:31;101306.09;;;31.23;27.14
6565;BME280;3316;44.118;27.258;2023-09-30T11:08:57;101301.25;;;31.27;26.97
6565;BME280;3316;44.118;27.258;2023-09-30T11:16:55;101300.03;;;30.56;27.23
6565;BME280;3316;44.118;27.258;2023-09-30T11:19:22;101296.50;;;30.88;27.50
6565;BME280;3316;44.118;27.258;2023-09-30T11:21:50;101290.63;;;31.03;27.49
6565;BME280;3316;44.118;27.258;2023-09-30T11:24:16;101300.97;;;30.78;27.79
6565;BME280;3316;44.118;27.258;2023-09-30T11:26:41;101297.72;;;30.95;27.53
6565;BME280;3316;44.118;27.258;2023-09-30T11:29:16;101283.09;;;30.96;27.89
6565;BME280;3316;44.118;27.258;2023-09-30T11:31:43;101292.66;;;30.79;27.66
6565;BME280;3316;44.118;27.258;2023-09-30T11:34:10;101277.84;;;30.40;28.00
6565;BME280;3316;44.118;27.258;2023-09-30T11:36:41;101276.50;;;30.13;28.06
6565;BME280;3316;44.118;27.258;2023-09-30T11:39:24;101276.59;;;30.22;28.29
6565;BME280;3316;44.118;27.258;2023-09-30T11:41:50;101272.44;;;30.07;28.23
6565;BME280;3316;44.118;27.258;2023-09-30T11:44:15;101271.94;;;30.13;28.44
6565;BME280;3316;44.118;27.258;2023-09-30T11:46:56;101276.72;;;30.10;28.79
6565;BME280;3316;44.118;27.258;2023-09-30T11:52:00;101263.06;;;29.89;29.00
6565;BME280;3316;44.118;27.258;2023-09-30T11:54:33;101270.06;;;30.14;28.75
6565;BME280;3316;44.118;27.258;2023-09-30T11:57:00;101267.97;;;30.06;29.37
6565;BME280;3316;44.118;27.258;2023-09-30T11:59:26;101255.38;;;30.38;29.24
6565;BME280;3316;44.118;27.258;2023-09-30T12:01:51;101262.06;;;30.12;28.92
6565;BME280;3316;44.118;27.258;2023-09-30T12:04:17;101256.03;;;29.98;29.57
6565;BME280;3316;44.118;27.258;2023-09-30T12:06:45;101257.53;;;30.02;29.78
6565;BME280;3316;44.118;27.258;2023-09-30T12:09:12;101228.41;;;29.93;29.10
6565;BME280;3316;44.118;27.258;2023-09-30T12:11:41;101259.72;;;29.97;29.19
6565;BME280;3316;44.118;27.258;2023-09-30T12:14:10;101244.16;;;30.21;29.45
6565;BME280;3316;44.118;27.258;2023-09-30T12:16:35;101229.97;;;30.28;28.96
6565;BME280;3316;44.118;27.258;2023-09-30T12:19:01;101246.03;;;30.63;28.85
6565;BME280;3316;44.118;27.258;2023-09-30T12:21:26;101240.00;;;30.59;28.68
6565;BME280;3316;44.118;27.258;2023-09-30T12:23:51;101207.03;;;30.64;28.64
6565;BME280;3316;44.118;27.258;2023-09-30T12:26:17;101232.66;;;30.71;28.88
6565;BME280;3316;44.118;27.258;2023-09-30T12:28:45;101217.00;;;30.32;28.82
6565;BME280;3316;44.118;27.258;2023-09-30T12:31:10;101215.06;;;30.01;29.36
6565;BME280;3316;44.118;27.258;2023-09-30T12:33:36;101219.75;;;29.99;29.64
6565;BME280;3316;44.118;27.258;2023-09-30T12:36:02;101218.25;;;30.28;29.12
6565;BME280;3316;44.118;27.258;2023-09-30T12:38:27;101214.09;;;30.55;28.81
6565;BME280;3316;44.118;27.258;2023-09-30T12:40:54;101199.53;;;30.56;28.70
6565;BME280;3316;44.118;27.258;2023-09-30T12:43:21;101204.00;;;30.46;28.61
6565;BME280;3316;44.118;27.258;2023-09-30T12:45:47;101201.88;;;30.07;29.49
6565;BME280;3316;44.118;27.258;2023-09-30T12:48:13;101211.25;;;30.03;29.95
6565;BME280;3316;44.118;27.258;2023-09-30T12:50:40;101204.66;;;30.28;29.55
6565;BME280;3316;44.118;27.258;2023-09-30T12:53:05;101192.50;;;29.89;29.62
6565;BME280;3316;44.118;27.258;2023-09-30T12:55:30;101166.47;;;29.53;29.22
6565;BME280;3316;44.118;27.258;2023-09-30T12:57:56;101172.69;;;29.77;29.53
6565;BME280;3316;44.118;27.258;2023-09-30T13:00:22;101190.31;;;29.61;29.76
6565;BME280;3316;44.118;27.258;2023-09-30T13:02:48;101192.03;;;29.73;29.87
6565;BME280;3316;44.118;27.258;2023-09-30T13:05:14;101187.69;;;29.59;29.72
6565;BME280;3316;44.118;27.258;2023-09-30T13:07:42;101187.22;;;29.54;29.74
6565;BME280;3316;44.118;27.258;2023-09-30T13:10:08;101188.81;;;29.35;29.61
6565;BME280;3316;44.118;27.258;2023-09-30T13:12:34;101181.41;;;29.48;29.31
6565;BME280;3316;44.118;27.258;2023-09-30T13:15:00;101174.50;;;29.33;29.96
6565;BME280;3316;44.118;27.258;2023-09-30T13:17:26;101158.81;;;29.14;29.52
6565;BME280;3316;44.118;27.258;2023-09-30T13:19:51;101163.34;;;29.02;29.98
6565;BME280;3316;44.118;27.258;2023-09-30T13:22:17;101176.69;;;29.17;30.19